createdAt,value
2023-01-07T00:01:58.337Z,64.30
2023-01-07T00:04:25.243Z,64.20
2023-01-07T00:06:56.738Z,64.10
2023-01-07T00:09:23.709Z,64.10
2023-01-07T00:11:50.611Z,64.20
2023-01-07T00:14:17.565Z,64.20
2023-01-07T00:16:44.651Z,63.90
2023-01-07T00:19:15.546Z,63.80
2023-01-07T00:21:42.863Z,63.70
2023-01-07T00:24:11.487Z,63.80
2023-01-07T00:26:39.441Z,63.70
2023-01-07T00:29:07.417Z,63.70
2023-01-07T00:31:40.022Z,64.50
2023-01-07T00:34:08.827Z,63.60
2023-01-07T00:36:45.203Z,63.60
2023-01-07T00:39:19.729Z,63.60
2023-01-07T00:42:18.582Z,63.60
2023-01-07T00:44:48.078Z,63.50
2023-01-07T00:47:17.913Z,63.60
2023-01-07T00:49:47.363Z,63.50
2023-01-07T00:52:14.274Z,63.50
2023-01-07T00:54:41.211Z,63.40
2023-01-07T00:57:13.258Z,63.30
2023-01-07T00:59:42.655Z,63.30
2023-01-07T01:02:09.739Z,63.20
2023-01-07T01:04:36.860Z,63.30
2023-01-07T01:07:03.794Z,63.20
2023-01-07T01:09:32.958Z,63.20
2023-01-07T01:11:59.862Z,63.20
2023-01-07T01:14:26.757Z,63.10
2023-01-07T01:16:53.646Z,63.10
2023-01-07T01:19:20.527Z,63.00
2023-01-07T01:21:47.408Z,63.10
2023-01-07T01:24:14.495Z,63.10
2023-01-07T01:26:41.444Z,63.00
2023-01-07T01:29:10.908Z,63.00
2023-01-07T01:31:38.218Z,63.00
2023-01-07T01:34:07.234Z,63.00
2023-01-07T01:36:34.159Z,63.80
2023-01-07T01:39:04.893Z,63.00
2023-01-07T01:41:32.359Z,63.00
2023-01-07T01:43:59.297Z,63.00
2023-01-07T01:46:42.083Z,62.90
2023-01-07T01:49:25.191Z,62.90
2023-01-07T01:52:09.850Z,62.90
2023-01-07T01:54:36.961Z,63.00
2023-01-07T01:57:07.400Z,63.00
2023-01-07T01:59:41.121Z,63.10
2023-01-07T02:02:11.339Z,63.10
2023-01-07T02:04:38.912Z,63.10
2023-01-07T02:07:09.892Z,63.10
2023-01-07T02:09:36.749Z,63.20
2023-01-07T02:12:26.374Z,63.20
2023-01-07T02:15:33.602Z,63.10
2023-01-07T02:18:42.828Z,63.00
2023-01-07T02:21:46.517Z,62.90
2023-01-07T02:24:41.481Z,62.90
2023-01-07T02:27:42.060Z,62.80
2023-01-07T02:30:32.067Z,63.00
2023-01-07T02:33:28.488Z,63.10
2023-01-07T02:36:16.474Z,63.20
2023-01-07T02:39:06.403Z,63.40
2023-01-07T02:41:45.245Z,63.50
2023-01-07T02:45:06.870Z,63.60
2023-01-07T02:47:55.147Z,63.50
2023-01-07T02:50:24.515Z,63.50
2023-01-07T02:52:51.426Z,63.60
2023-01-07T02:55:35.532Z,63.50
2023-01-07T02:58:37.629Z,63.50
2023-01-07T03:01:32.319Z,63.40
2023-01-07T03:04:21.409Z,63.60
2023-01-07T03:07:53.052Z,63.70
2023-01-07T03:10:32.660Z,63.50
2023-01-07T03:13:08.337Z,63.60
2023-01-07T03:15:51.032Z,63.60
2023-01-07T03:18:25.111Z,63.70
2023-01-07T03:20:59.902Z,63.70
2023-01-07T03:23:30.716Z,63.70
2023-01-07T03:26:04.141Z,63.70
2023-01-07T03:28:37.433Z,63.70
2023-01-07T03:31:06.113Z,63.70
2023-01-07T03:33:46.735Z,63.60
2023-01-07T03:36:18.329Z,63.60
2023-01-07T03:38:48.414Z,63.50
2023-01-07T03:41:35.392Z,63.60
2023-01-07T03:44:02.481Z,63.70
2023-01-07T03:46:33.857Z,63.50
2023-01-07T03:49:00.761Z,64.20
2023-01-07T03:51:30.212Z,63.40
2023-01-07T03:53:59.304Z,63.40
2023-01-07T03:56:26.245Z,64.30
2023-01-07T03:58:53.193Z,63.50
2023-01-07T04:01:23.341Z,63.50
2023-01-07T04:03:50.324Z,63.60
2023-01-07T04:06:17.162Z,63.60
2023-01-07T04:08:44.020Z,63.50
2023-01-07T04:11:11.122Z,63.50
2023-01-07T04:13:38.043Z,63.60
2023-01-07T04:16:05.550Z,63.60
2023-01-07T04:18:37.117Z,63.50
2023-01-07T04:21:04.177Z,63.60
2023-01-07T04:23:33.629Z,63.80
2023-01-07T04:26:00.660Z,63.70
2023-01-07T04:28:32.466Z,63.40
2023-01-07T04:30:59.979Z,63.40
2023-01-07T04:33:29.381Z,63.50
2023-01-07T04:35:57.847Z,63.60
2023-01-07T04:38:26.901Z,63.50
2023-01-07T04:40:53.757Z,63.50
2023-01-07T04:43:20.665Z,63.50
2023-01-07T04:45:47.607Z,63.50
2023-01-07T04:48:14.679Z,63.40
2023-01-07T04:50:44.110Z,63.30
2023-01-07T04:53:14.132Z,63.40
2023-01-07T04:55:44.975Z,63.30
2023-01-07T04:58:13.197Z,63.40
2023-01-07T05:00:42.201Z,63.40
2023-01-07T05:03:09.445Z,63.20
2023-01-07T05:05:36.346Z,63.00
2023-01-07T05:08:03.633Z,63.00
2023-01-07T05:10:30.763Z,63.10
2023-01-07T05:12:57.726Z,63.10
2023-01-07T05:15:29.341Z,63.20
2023-01-07T05:17:56.081Z,63.20
2023-01-07T05:20:25.443Z,63.30
2023-01-07T05:22:52.349Z,63.30
2023-01-07T05:25:19.254Z,63.10
2023-01-07T05:27:46.140Z,63.00
2023-01-07T05:30:17.740Z,62.90
2023-01-07T05:32:46.843Z,63.00
2023-01-07T05:35:13.694Z,63.00
2023-01-07T05:37:45.116Z,63.20
2023-01-07T05:40:12.969Z,63.30
2023-01-07T05:42:42.302Z,63.20
2023-01-07T05:45:14.144Z,63.10
2023-01-07T05:47:41.014Z,63.10
2023-01-07T05:50:10.642Z,62.90
2023-01-07T05:52:37.570Z,62.90
2023-01-07T05:55:06.355Z,62.90
2023-01-07T05:57:35.930Z,62.90
2023-01-07T06:00:03.186Z,62.90
2023-01-07T06:02:32.602Z,62.90
2023-01-07T06:04:59.548Z,63.70
2023-01-07T06:07:28.712Z,62.90
2023-01-07T06:10:01.877Z,62.80
2023-01-07T06:12:30.271Z,62.80
2023-01-07T06:14:57.185Z,62.90
2023-01-07T06:17:24.047Z,63.10
2023-01-07T06:19:53.892Z,63.00
2023-01-07T06:22:23.000Z,63.10
2023-01-07T06:24:52.186Z,63.10
2023-01-07T06:27:19.119Z,63.00
2023-01-07T06:29:46.022Z,62.80
2023-01-07T06:32:12.943Z,62.80
2023-01-07T06:34:42.020Z,62.80
2023-01-07T06:37:08.849Z,62.80
2023-01-07T06:39:35.756Z,62.80
2023-01-07T06:42:02.656Z,62.80
2023-01-07T06:44:29.598Z,62.80
2023-01-07T06:46:56.454Z,62.90
2023-01-07T06:49:23.304Z,62.90
2023-01-07T06:51:52.712Z,62.90
2023-01-07T06:54:21.805Z,62.80
2023-01-07T06:56:50.870Z,62.80
2023-01-07T06:59:17.747Z,62.70
2023-01-07T07:01:46.581Z,62.70
2023-01-07T07:04:13.719Z,62.90
2023-01-07T07:06:40.614Z,62.70
2023-01-07T07:09:07.488Z,62.60
2023-01-07T07:11:36.635Z,62.60
2023-01-07T07:14:06.072Z,62.70
2023-01-07T07:16:35.458Z,62.60
2023-01-07T07:19:02.360Z,62.40
2023-01-07T07:21:29.216Z,62.40
2023-01-07T07:23:58.175Z,62.50
2023-01-07T07:26:25.811Z,62.40
2023-01-07T07:28:54.950Z,62.40
2023-01-07T07:31:24.915Z,62.40
2023-01-07T07:33:51.847Z,62.50
2023-01-07T07:36:20.974Z,62.40
2023-01-07T07:38:50.178Z,62.20
2023-01-07T07:41:19.609Z,62.20
2023-01-07T07:43:48.663Z,62.10
2023-01-07T07:46:18.225Z,62.00
2023-01-07T07:48:45.166Z,62.20
2023-01-07T07:51:14.308Z,63.10
2023-01-07T07:53:41.190Z,62.30
2023-01-07T07:56:11.003Z,62.40
2023-01-07T07:58:40.117Z,62.50
2023-01-07T08:01:07.158Z,62.70
2023-01-07T08:03:34.126Z,62.60
2023-01-07T08:06:01.024Z,62.50
2023-01-07T08:08:27.965Z,62.50
2023-01-07T08:10:56.123Z,62.40
2023-01-07T08:13:25.848Z,62.30
2023-01-07T08:15:54.844Z,62.20
2023-01-07T08:18:21.765Z,62.30
2023-01-07T08:20:50.940Z,62.20
2023-01-07T08:23:23.339Z,62.10
2023-01-07T08:25:53.238Z,62.10
2023-01-07T08:28:20.165Z,62.10
2023-01-07T08:30:49.201Z,62.10
2023-01-07T08:33:18.206Z,62.20
2023-01-07T08:35:45.503Z,62.20
2023-01-07T08:38:15.020Z,62.20
2023-01-07T08:40:41.904Z,62.10
2023-01-07T08:43:09.097Z,62.00
2023-01-07T08:45:36.190Z,62.00
2023-01-07T08:48:03.434Z,62.00
2023-01-07T08:50:35.570Z,61.90
2023-01-07T08:53:04.948Z,61.80
2023-01-07T08:55:31.812Z,61.80
2023-01-07T08:57:58.840Z,61.70
2023-01-07T09:00:29.293Z,61.60
2023-01-07T09:02:58.450Z,62.40
2023-01-07T09:05:27.618Z,61.50
2023-01-07T09:07:57.744Z,61.50
2023-01-07T09:10:27.743Z,61.50
2023-01-07T09:12:54.797Z,61.70
2023-01-07T09:15:21.979Z,61.60
2023-01-07T09:17:48.838Z,61.50
2023-01-07T09:20:18.856Z,61.60
2023-01-07T09:22:46.362Z,61.70
2023-01-07T09:25:13.583Z,61.60
2023-01-07T09:27:43.113Z,61.60
2023-01-07T09:30:15.020Z,61.60
2023-01-07T09:32:45.464Z,61.60
2023-01-07T09:35:12.937Z,61.50
2023-01-07T09:37:40.067Z,61.50
2023-01-07T09:40:12.731Z,61.50
2023-01-07T09:42:54.603Z,61.40
2023-01-07T09:45:31.006Z,61.50
2023-01-07T09:48:05.112Z,61.40
2023-01-07T09:51:07.771Z,61.40
2023-01-07T09:53:40.677Z,61.20
2023-01-07T09:56:24.125Z,61.30
2023-01-07T09:58:54.977Z,61.30
2023-01-07T10:01:45.889Z,61.20
2023-01-07T10:04:56.355Z,61.20
2023-01-07T10:07:35.331Z,61.20
2023-01-07T10:10:29.738Z,61.40
2023-01-07T10:13:27.263Z,61.30
2023-01-07T10:16:31.266Z,61.30
2023-01-07T10:19:11.695Z,61.30
2023-01-07T10:21:55.072Z,61.20
2023-01-07T10:24:45.590Z,60.70
2023-01-07T10:27:18.760Z,60.80
2023-01-07T10:29:55.369Z,61.00
2023-01-07T10:32:25.210Z,61.20
2023-01-07T10:34:59.390Z,61.30
2023-01-07T10:37:42.057Z,61.30
2023-01-07T10:40:36.097Z,61.30
2023-01-07T10:43:33.554Z,61.20
2023-01-07T10:46:29.499Z,60.90
2023-01-07T10:49:22.620Z,61.00
2023-01-07T10:51:58.114Z,60.90
2023-01-07T10:54:58.128Z,61.00
2023-01-07T10:57:28.936Z,61.00
2023-01-07T11:00:05.411Z,61.00
2023-01-07T11:02:34.816Z,60.70
2023-01-07T11:05:01.893Z,60.70
2023-01-07T11:07:48.827Z,60.70
2023-01-07T11:10:21.731Z,60.40
2023-01-07T11:13:16.591Z,60.40
2023-01-07T11:16:08.053Z,59.70
2023-01-07T11:19:01.244Z,60.00
2023-01-07T11:21:43.289Z,60.10
2023-01-07T11:24:30.250Z,59.90
2023-01-07T11:27:22.181Z,59.80
2023-01-07T11:30:26.345Z,59.80
2023-01-07T11:33:04.675Z,60.00
2023-01-07T11:35:32.690Z,60.10
2023-01-07T11:38:00.521Z,60.40
2023-01-07T11:40:30.985Z,60.40
2023-01-07T11:43:10.567Z,60.50
2023-01-07T11:46:19.616Z,60.40
2023-01-07T11:48:43.035Z,60.10
2023-01-07T11:51:11.040Z,60.10
2023-01-07T11:53:50.488Z,60.00
2023-01-07T11:56:32.281Z,59.20
2023-01-07T11:59:26.938Z,59.10
2023-01-07T12:01:59.372Z,59.40
2023-01-07T12:04:37.175Z,59.70
2023-01-07T12:07:14.508Z,59.80
2023-01-07T12:09:44.195Z,59.80
2023-01-07T12:12:39.457Z,59.60
2023-01-07T12:15:19.334Z,59.40
2023-01-07T12:18:02.315Z,59.20
2023-01-07T12:21:00.903Z,59.40
2023-01-07T12:23:53.516Z,59.50
2023-01-07T12:26:26.983Z,59.30
2023-01-07T12:29:25.887Z,59.60
2023-01-07T12:32:11.653Z,59.60
2023-01-07T12:34:43.834Z,59.90
2023-01-07T12:37:24.900Z,60.10
2023-01-07T12:39:58.221Z,60.00
2023-01-07T12:42:36.725Z,60.30
2023-01-07T12:45:15.599Z,60.50
2023-01-07T12:47:51.171Z,60.50
2023-01-07T12:50:41.708Z,60.60
2023-01-07T12:53:34.537Z,60.60
2023-01-07T12:56:18.639Z,60.50
2023-01-07T12:59:45.811Z,60.40
2023-01-07T13:02:35.773Z,60.50
2023-01-07T13:05:20.721Z,60.50
2023-01-07T13:08:04.473Z,60.30
2023-01-07T13:10:45.696Z,60.00
2023-01-07T13:13:28.150Z,59.80
2023-01-07T13:15:56.853Z,59.80
2023-01-07T13:18:24.733Z,60.00
2023-01-07T13:21:14.063Z,60.10
2023-01-07T13:24:09.324Z,60.00
2023-01-07T13:27:14.580Z,61.00
2023-01-07T13:30:09.461Z,60.40
2023-01-07T13:33:07.763Z,60.20
2023-01-07T13:36:01.190Z,60.50
2023-01-07T13:39:27.958Z,60.40
2023-01-07T13:42:50.248Z,60.40
2023-01-07T13:45:39.378Z,60.70
2023-01-07T13:48:21.706Z,60.70
2023-01-07T13:51:07.718Z,61.50
2023-01-07T13:53:46.920Z,61.20
2023-01-07T13:56:16.929Z,60.30
2023-01-07T13:58:53.700Z,60.30
2023-01-07T14:01:26.888Z,60.10
2023-01-07T14:04:19.688Z,60.20
2023-01-07T14:06:52.138Z,60.20
2023-01-07T14:09:31.810Z,60.30
2023-01-07T14:12:23.772Z,60.00
2023-01-07T14:15:16.992Z,59.80
2023-01-07T14:17:59.276Z,59.70
2023-01-07T14:20:39.886Z,59.70
2023-01-07T14:23:47.242Z,59.70
2023-01-07T14:26:24.091Z,59.70
2023-01-07T14:29:08.597Z,60.00
2023-01-07T14:31:40.341Z,59.90
2023-01-07T14:34:36.620Z,60.00
2023-01-07T14:37:04.987Z,59.90
2023-01-07T14:39:40.962Z,60.00
2023-01-07T14:42:20.149Z,60.00
2023-01-07T14:44:51.140Z,60.00
2023-01-07T14:47:46.033Z,60.00
2023-01-07T14:50:24.083Z,60.20
2023-01-07T14:53:43.054Z,60.30
2023-01-07T14:56:21.733Z,60.00
2023-01-07T14:59:06.933Z,60.20
2023-01-07T15:01:54.625Z,60.10
2023-01-07T15:04:52.443Z,60.10
2023-01-07T15:07:27.013Z,60.10
2023-01-07T15:10:36.757Z,60.20
2023-01-07T15:13:26.814Z,60.30
2023-01-07T15:16:07.415Z,60.30
2023-01-07T15:18:54.439Z,60.30
2023-01-07T15:21:27.100Z,60.30
2023-01-07T15:24:13.158Z,60.40
2023-01-07T15:26:59.032Z,60.40
2023-01-07T15:29:37.037Z,60.50
2023-01-07T15:32:21.436Z,60.50
2023-01-07T15:34:48.417Z,60.50
2023-01-07T15:37:18.079Z,60.50
2023-01-07T15:39:52.810Z,60.40
2023-01-07T15:42:23.159Z,60.30
2023-01-07T15:44:54.480Z,60.20
2023-01-07T15:47:42.556Z,60.00
2023-01-07T15:50:31.815Z,59.90
2023-01-07T15:53:04.096Z,59.70
2023-01-07T15:55:40.683Z,59.80
2023-01-07T15:58:18.052Z,59.80
2023-01-07T16:00:51.923Z,59.70
2023-01-07T16:03:22.518Z,59.70
2023-01-07T16:05:53.204Z,59.60
2023-01-07T16:08:32.739Z,59.60
2023-01-07T16:11:02.270Z,59.50
2023-01-07T16:13:31.834Z,59.60
2023-01-07T16:16:06.658Z,59.60
2023-01-07T16:18:33.892Z,59.60
2023-01-07T16:21:13.509Z,59.60
2023-01-07T16:23:43.686Z,59.60
2023-01-07T16:26:27.707Z,59.70
2023-01-07T16:29:02.434Z,59.70
2023-01-07T16:31:31.093Z,59.70
2023-01-07T16:33:59.929Z,59.80
2023-01-07T16:36:44.673Z,59.70
2023-01-07T16:39:22.871Z,59.90
2023-01-07T16:41:49.955Z,60.00
2023-01-07T16:44:49.710Z,60.10
2023-01-07T16:47:32.256Z,59.90
2023-01-07T16:50:19.993Z,59.90
2023-01-07T16:52:54.401Z,59.90
2023-01-07T16:55:58.573Z,60.00
2023-01-07T16:58:42.143Z,60.00
2023-01-07T17:01:10.644Z,60.00
2023-01-07T17:03:59.127Z,60.00
2023-01-07T17:06:30.605Z,60.10
2023-01-07T17:09:00.530Z,60.20
2023-01-07T17:11:38.378Z,60.20
2023-01-07T17:14:34.049Z,60.30
2023-01-07T17:17:09.125Z,60.40
2023-01-07T17:19:42.087Z,60.40
2023-01-07T17:22:38.154Z,60.50
2023-01-07T17:25:28.422Z,60.60
2023-01-07T17:28:06.707Z,60.60
2023-01-07T17:30:37.358Z,60.60
2023-01-07T17:33:07.503Z,60.70
2023-01-07T17:35:44.168Z,60.70
2023-01-07T17:38:16.073Z,60.70
2023-01-07T17:40:46.902Z,60.70
2023-01-07T17:43:34.998Z,60.70
2023-01-07T17:46:12.256Z,60.70
2023-01-07T17:48:39.654Z,60.70
2023-01-07T17:51:07.234Z,60.70
2023-01-07T17:53:57.185Z,60.80
2023-01-07T17:56:30.057Z,60.80
2023-01-07T17:58:57.055Z,61.00
2023-01-07T18:01:28.293Z,61.00
2023-01-07T18:03:55.399Z,61.10
2023-01-07T18:06:35.009Z,61.20
2023-01-07T18:09:05.001Z,61.40
2023-01-07T18:11:58.591Z,61.40
2023-01-07T18:14:28.012Z,61.40
2023-01-07T18:16:55.085Z,62.40
2023-01-07T18:19:22.061Z,61.50
2023-01-07T18:21:48.989Z,61.50
2023-01-07T18:24:19.688Z,61.50
2023-01-07T18:26:47.276Z,62.20
2023-01-07T18:29:15.142Z,61.50
2023-01-07T18:31:45.638Z,61.50
2023-01-07T18:34:15.017Z,61.40
2023-01-07T18:36:42.397Z,62.20
2023-01-07T18:39:19.648Z,61.40
2023-01-07T18:41:48.813Z,61.40
2023-01-07T18:44:17.434Z,61.50
2023-01-07T18:46:44.460Z,61.50
2023-01-07T18:49:12.222Z,61.60
2023-01-07T18:51:39.352Z,61.60
2023-01-07T18:54:06.995Z,61.60
2023-01-07T18:56:33.887Z,61.80
2023-01-07T18:59:03.253Z,61.80
2023-01-07T19:01:30.499Z,62.70
2023-01-07T19:03:58.012Z,61.80
2023-01-07T19:06:27.307Z,61.70
2023-01-07T19:08:56.703Z,61.80
2023-01-07T19:11:26.387Z,61.80
2023-01-07T19:13:53.375Z,61.80
2023-01-07T19:16:21.404Z,61.80
2023-01-07T19:18:53.241Z,61.70
2023-01-07T19:21:22.782Z,61.70
2023-01-07T19:23:54.668Z,61.80
2023-01-07T19:26:22.232Z,61.70
2023-01-07T19:28:49.279Z,61.70
2023-01-07T19:31:16.364Z,61.70
2023-01-07T19:33:43.439Z,61.70
2023-01-07T19:36:15.004Z,61.70
2023-01-07T19:38:48.619Z,61.70
2023-01-07T19:41:23.213Z,61.80
2023-01-07T19:43:52.323Z,61.80
2023-01-07T19:46:20.184Z,61.80
2023-01-07T19:48:47.857Z,61.90
2023-01-07T19:51:15.221Z,62.00
2023-01-07T19:53:42.224Z,62.10
2023-01-07T19:56:12.262Z,62.10
2023-01-07T19:58:42.296Z,62.20
2023-01-07T20:01:13.157Z,62.20
2023-01-07T20:03:41.122Z,62.20
2023-01-07T20:06:15.749Z,62.30
2023-01-07T20:08:43.346Z,62.40
2023-01-07T20:11:13.737Z,62.50
2023-01-07T20:13:41.636Z,62.50
2023-01-07T20:16:13.493Z,62.50
2023-01-07T20:18:50.877Z,62.40
2023-01-07T20:21:26.419Z,62.50
2023-01-07T20:23:54.253Z,62.40
2023-01-07T20:26:30.471Z,62.40
2023-01-07T20:28:58.887Z,62.30
2023-01-07T20:31:31.089Z,62.30
2023-01-07T20:33:59.282Z,62.30
2023-01-07T20:36:32.393Z,62.30
2023-01-07T20:39:06.032Z,62.20
2023-01-07T20:41:35.383Z,62.30
2023-01-07T20:44:09.416Z,62.20
2023-01-07T20:46:38.928Z,62.10
2023-01-07T20:49:09.456Z,62.10
2023-01-07T20:51:36.367Z,62.10
2023-01-07T20:54:08.216Z,62.00
2023-01-07T20:56:35.307Z,61.90
2023-01-07T20:59:02.411Z,61.90
2023-01-07T21:01:32.032Z,61.80
2023-01-07T21:04:01.446Z,61.80
2023-01-07T21:06:30.955Z,61.80
2023-01-07T21:08:58.082Z,61.80
2023-01-07T21:11:25.107Z,61.90
2023-01-07T21:13:57.201Z,61.90
2023-01-07T21:16:28.565Z,62.00
2023-01-07T21:18:56.447Z,62.10
2023-01-07T21:21:25.303Z,62.20
2023-01-07T21:23:57.590Z,62.30
2023-01-07T21:26:25.204Z,62.30
2023-01-07T21:28:56.225Z,62.40
2023-01-07T21:31:26.305Z,62.50
2023-01-07T21:33:57.944Z,62.60
2023-01-07T21:36:25.684Z,62.60
2023-01-07T21:38:55.203Z,62.90
2023-01-07T21:41:23.404Z,62.60
2023-01-07T21:43:50.758Z,62.60
2023-01-07T21:46:18.221Z,62.60
2023-01-07T21:48:47.023Z,62.60
2023-01-07T21:51:26.418Z,62.50
2023-01-07T21:53:55.978Z,62.40
2023-01-07T21:56:28.766Z,62.50
2023-01-07T21:58:58.060Z,62.70
2023-01-07T22:01:30.381Z,62.70
2023-01-07T22:03:59.062Z,62.80
2023-01-07T22:06:33.091Z,63.00
2023-01-07T22:09:06.289Z,63.20
2023-01-07T22:11:38.505Z,63.20
2023-01-07T22:14:05.444Z,63.10
2023-01-07T22:16:34.993Z,63.00
2023-01-07T22:19:05.070Z,63.00
2023-01-07T22:21:34.601Z,63.10
2023-01-07T22:24:04.630Z,63.20
2023-01-07T22:26:36.024Z,63.30
2023-01-07T22:29:06.954Z,63.40
2023-01-07T22:31:37.332Z,63.50
2023-01-07T22:34:06.570Z,63.60
2023-01-07T22:36:53.743Z,63.70
2023-01-07T22:39:36.489Z,63.90
2023-01-07T22:42:51.785Z,63.80
2023-01-07T22:45:43.993Z,63.90
2023-01-07T22:48:15.520Z,63.90
2023-01-07T22:50:42.307Z,64.00
2023-01-07T22:53:13.283Z,64.30
2023-01-07T22:55:48.812Z,64.00
2023-01-07T22:58:17.970Z,64.10
2023-01-07T23:01:10.224Z,64.10
2023-01-07T23:03:37.245Z,64.30
2023-01-07T23:06:04.811Z,64.10
2023-01-07T23:08:34.243Z,64.10
2023-01-07T23:11:01.168Z,64.00
2023-01-07T23:13:28.342Z,64.10
2023-01-07T23:15:55.763Z,64.10
2023-01-07T23:18:23.044Z,64.10
2023-01-07T23:20:54.834Z,64.10
2023-01-07T23:23:21.771Z,64.20
2023-01-07T23:25:50.698Z,64.20
2023-01-07T23:28:19.022Z,64.20
2023-01-07T23:30:46.073Z,64.10
2023-01-07T23:33:13.009Z,64.10
2023-01-07T23:35:39.881Z,64.10
2023-01-07T23:38:06.865Z,64.00
2023-01-07T23:40:33.815Z,64.00
2023-01-07T23:43:00.907Z,64.00
2023-01-07T23:45:30.463Z,64.00
2023-01-07T23:48:00.431Z,64.00
2023-01-07T23:50:27.391Z,64.00
2023-01-07T23:52:54.269Z,64.00
2023-01-07T23:55:21.326Z,63.90
2023-01-07T23:57:50.447Z,63.90
